Map

Track Data

SID SEASON NUMBER BASIN SUBBASIN NAME ISO_TIME NATURE LAT LON WMO_WIND WMO_PRES WMO_AGENCY TRACK_TYPE DIST2LAND LANDFALL IFLAG USA_AGENCY USA_ATCF_ID USA_LAT USA_LON USA_RECORD USA_STATUS USA_WIND USA_PRES USA_SSHS USA_R34_NE USA_R34_SE USA_R34_SW USA_R34_NW USA_R50_NE USA_R50_SE USA_R50_SW USA_R50_NW USA_R64_NE USA_R64_SE USA_R64_SW USA_R64_NW USA_POCI USA_ROCI USA_RMW USA_EYE TOKYO_LAT TOKYO_LON TOKYO_GRADE TOKYO_WIND TOKYO_PRES TOKYO_R50_DIR TOKYO_R50_LONG TOKYO_R50_SHORT TOKYO_R30_DIR TOKYO_R30_LONG TOKYO_R30_SHORT TOKYO_LAND CMA_LAT CMA_LON CMA_CAT CMA_WIND CMA_PRES HKO_LAT HKO_LON HKO_CAT HKO_WIND HKO_PRES NEWDELHI_LAT NEWDELHI_LON NEWDELHI_GRADE NEWDELHI_WIND NEWDELHI_PRES NEWDELHI_CI NEWDELHI_DP NEWDELHI_POCI REUNION_LAT REUNION_LON REUNION_TYPE REUNION_WIND REUNION_PRES REUNION_TNUM REUNION_CI REUNION_RMW REUNION_R34_NE REUNION_R34_SE REUNION_R34_SW REUNION_R34_NW REUNION_R50_NE REUNION_R50_SE REUNION_R50_SW REUNION_R50_NW REUNION_R64_NE REUNION_R64_SE REUNION_R64_SW REUNION_R64_NW BOM_LAT BOM_LON BOM_TYPE BOM_WIND BOM_PRES BOM_TNUM BOM_CI BOM_RMW BOM_R34_NE BOM_R34_SE BOM_R34_SW BOM_R34_NW BOM_R50_NE BOM_R50_SE BOM_R50_SW BOM_R50_NW BOM_R64_NE BOM_R64_SE BOM_R64_SW BOM_R64_NW BOM_ROCI BOM_POCI BOM_EYE BOM_POS_METHOD BOM_PRES_METHOD NADI_LAT NADI_LON NADI_CAT NADI_WIND NADI_PRES WELLINGTON_LAT WELLINGTON_LON WELLINGTON_WIND WELLINGTON_PRES DS824_LAT DS824_LON DS824_STAGE DS824_WIND DS824_PRES TD9636_LAT TD9636_LON TD9636_STAGE TD9636_WIND TD9636_PRES TD9635_LAT TD9635_LON TD9635_WIND TD9635_PRES TD9635_ROCI NEUMANN_LAT NEUMANN_LON NEUMANN_CLASS NEUMANN_WIND NEUMANN_PRES MLC_LAT MLC_LON MLC_CLASS MLC_WIND MLC_PRES USA_GUST BOM_GUST BOM_GUST_PER REUNION_GUST REUNION_GUST_PER USA_SEAHGT USA_SEARAD_NE USA_SEARAD_SE USA_SEARAD_SW USA_SEARAD_NW STORM_SPEED STORM_DIR
2018334S09156 2019 110 SP EA OWEN 2018-11-30 00:00:00 NR -8.80000 155.600 main 184 184 O_____________ jtwc_sh SH052019 -8.80000 155.600 DB 20 1007 -3 1009 175 50 12 187
2018334S09156 2019 110 SP EA OWEN 2018-11-30 03:00:00 NR -9.38499 155.530 main 223 223 P_____________ SH052019 -9.38499 155.530 DB 20 1006 -3 1008 170 50 11 190
2018334S09156 2019 110 SP EA OWEN 2018-11-30 06:00:00 NR -9.90000 155.400 main 266 266 O_____________ jtwc_sh SH052019 -9.90000 155.400 DB 20 1006 -3 1008 165 50 10 201
2018334S09156 2019 110 SP EA OWEN 2018-11-30 09:00:00 NR -10.2950 155.173 main 313 313 P_____________ SH052019 -10.2950 155.173 DB 22 1006 -3 1009 175 50 9 215
2018334S09156 2019 110 SP EA OWEN 2018-11-30 12:00:00 TS -10.6000 154.900 main 360 360 O_____________ jtwc_sh SH052019 -10.6000 154.900 TD 25 1007 -1 1010 185 50 8 223
2018334S09156 2019 110 SP EA OWEN 2018-11-30 15:00:00 TS -10.8650 154.627 main 407 406 P_____________ SH052019 -10.8650 154.627 TD 25 1003 -1 1009 172 50 7 225
2018334S09156 2019 110 SP EA OWEN 2018-11-30 18:00:00 TS -11.1000 154.400 main 408 399 O_____________ jtwc_sh SH052019 -11.1000 154.400 TD 25 1000 -1 1008 160 50 6 217
2018334S09156 2019 110 SP EA OWEN 2018-11-30 21:00:00 TS -11.3575 154.247 main 392 392 P_____________ SH052019 -11.3575 154.247 TD 27 1000 -1 1008 160 50 5 202
2018334S09156 2019 110 SP EA OWEN 2018-12-01 00:00:00 TS -11.6000 154.200 main 398 398 O_____________ jtwc_sh SH052019 -11.6000 154.200 TD 30 1000 -1 1009 160 50 4 175
2018334S09156 2019 110 SP EA OWEN 2018-12-01 03:00:00 TS -11.8000 154.285 main 415 415 P_____________ SH052019 -11.8000 154.285 TD 30 1001 -1 1008 170 50 4 154
2018334S09156 2019 110 SP EA OWEN 2018-12-01 06:00:00 TS -12.0000 154.400 main 433 433 O_____________ jtwc_sh SH052019 -12.0000 154.400 TD 30 1003 -1 1008 180 50 5 162
2018334S09156 2019 110 SP EA OWEN 2018-12-01 09:00:00 TS -12.2275 154.423 main 441 441 P_____________ SH052019 -12.2275 154.423 TD 30 1003 -1 1008 180 55 5 178
2018334S09156 2019 110 SP EA OWEN 2018-12-01 12:00:00 TS -12.5000 154.400 main 456 456 O_____________ jtwc_sh SH052019 -12.5000 154.400 TD 30 1003 -1 1008 180 60 6 187
2018334S09156 2019 110 SP EA OWEN 2018-12-01 15:00:00 TS -12.8350 154.350 main 472 469 P_____________ SH052019 -12.8350 154.350 TD 30 1001 -1 1008 167 60 7 188
2018334S09156 2019 110 SP EA OWEN 2018-12-01 18:00:00 TS -13.2000 154.300 main 488 488 O_____________ jtwc_sh SH052019 -13.2000 154.300 TD 30 1000 -1 1008 155 60 8 186
2018334S09156 2019 110 SP EA OWEN 2018-12-01 21:00:00 TS -13.5875 154.270 main 515 515 P_____________ SH052019 -13.5875 154.270 TD 32 998 -1 1009 172 60 7 0
2018334S09156 2019 110 SP EA OWEN 2018-12-02 00:00:00 TS -13.9000 154.300 main 538 538 O_____________ jtwc_sh SH052019 -13.9000 154.300 TS 35 996 0 60 40 1010 190 60 5 160
2018334S09156 2019 110 SP EA OWEN 2018-12-02 03:00:00 TS -14.0150 154.435 main 553 553 P_____________ SH052019 -14.0150 154.435 TS 37 994 0 57 40 1008 182 45 4 124
2018334S09156 2019 110 SP EA OWEN 2018-12-02 06:00:00 TS -14.1000 154.600 main 577 577 O_____________ jtwc_sh SH052019 -14.1000 154.600 TS 40 993 0 30 55 40 25 1007 175 30 4 138
2018334S09156 2019 110 SP EA OWEN 2018-12-02 09:00:00 TS -14.3275 154.722 main 600 600 P_____________ SH052019 -14.3275 154.722 TS 42 993 0 42 55 42 30 1008 170 35 5 159
2018334S09156 2019 110 SP EA OWEN 2018-12-02 12:00:00 TS -14.6000 154.800 main 631 631 O_____________ jtwc_sh SH052019 -14.6000 154.800 TS 45 993 0 55 55 45 35 1009 165 40 5 173
2018334S09156 2019 110 SP EA OWEN 2018-12-02 15:00:00 TS -14.8575 154.793 main 655 655 P_____________ SH052019 -14.8575 154.793 TS 45 993 0 55 55 45 40 1008 180 37 5 178
2018334S09156 2019 110 SP EA OWEN 2018-12-02 18:00:00 TS -15.1000 154.800 main 671 671 O_____________ jtwc_sh SH052019 -15.1000 154.800 TS 45 993 0 55 55 45 45 1008 195 35 5 164
2018334S09156 2019 110 SP EA OWEN 2018-12-02 21:00:00 TS -15.3150 154.927 main 695 695 P_____________ SH052019 -15.3150 154.927 TS 45 991 0 50 55 40 37 1008 185 30 5 144
2018334S09156 2019 110 SP EA OWEN 2018-12-03 00:00:00 TS -15.5000 155.100 main 726 726 O_____________ jtwc_sh SH052019 -15.5000 155.100 TS 45 989 0 45 55 35 30 1009 175 25 5 141
2018334S09156 2019 110 SP EA OWEN 2018-12-03 03:00:00 TS -15.6800 155.235 main 750 750 P_____________ SH052019 -15.6800 155.235 TS 50 987 0 55 62 40 35 10 12 7 1008 185 27 4 136
2018334S09156 2019 110 SP EA OWEN 2018-12-03 06:00:00 TS -15.8000 155.400 main 773 773 O_____________ jtwc_sh SH052019 -15.8000 155.400 TS 55 985 0 65 70 45 40 20 25 15 1008 195 30 4 109
2018334S09156 2019 110 SP EA OWEN 2018-12-03 09:00:00 TS -15.8150 155.635 main 787 787 P_____________ SH052019 -15.8150 155.635 TS 55 985 0 67 77 47 20 25 15 1008 202 22 5 90
2018334S09156 2019 110 SP EA OWEN 2018-12-03 12:00:00 TS -15.8000 155.900 main 793 782 O_____________ jtwc_sh SH052019 -15.8000 155.900 TS 55 985 0 70 85 50 20 25 15 1009 210 15 5 92
2018334S09156 2019 110 SP EA OWEN 2018-12-03 15:00:00 TS -15.8350 156.158 main 777 776 P_____________ SH052019 -15.8350 156.158 TS 50 991 0 70 87 45 10 12 7 1008 200 27 5 102
2018334S09156 2019 110 SP EA OWEN 2018-12-03 18:00:00 TS -15.9000 156.400 main 776 766 O_____________ jtwc_sh SH052019 -15.9000 156.400 TS 45 998 0 70 90 40 65 1008 190 40 5 107
2018334S09156 2019 110 SP EA OWEN 2018-12-03 21:00:00 TS -15.9850 156.682 main 771 766 P_____________ SH052019 -15.9850 156.682 TS 42 999 0 65 70 42 62 1008 190 40 4 117
2018334S09156 2019 110 SP EA OWEN 2018-12-04 00:00:00 TS -16.1000 156.800 main 776 776 O_____________ jtwc_sh SH052019 -16.1000 156.800 TS 40 1000 0 60 50 45 60 1008 190 40 50 3 196
2018334S09156 2019 110 SP EA OWEN 2018-12-04 03:00:00 TS -16.2725 156.598 main 806 806 P_____________ SH052019 -16.2725 156.598 TS 37 1001 0 57 47 42 52 1007 172 40 7 242
2018334S09156 2019 110 SP EA OWEN 2018-12-04 06:00:00 TS -16.4000 156.200 main 835 835 O_____________ jtwc_sh SH052019 -16.4000 156.200 TS 35 1002 0 55 45 40 45 1007 155 40 8 264
2018334S09156 2019 110 SP EA OWEN 2018-12-04 09:00:00 TS -16.3576 155.757 main 851 809 P_____________ SH052019 -16.3576 155.757 TS 32 1003 -1 1007 145 45 9 277
2018334S09156 2019 110 SP EA OWEN 2018-12-04 12:00:00 TS -16.3000 155.300 main 809 783 O_____________ jtwc_sh SH052019 -16.3000 155.300 TD 30 1004 -1 1008 135 50 8 271
2018334S09156 2019 110 SP EA OWEN 2018-12-04 15:00:00 TS -16.3400 154.898 main 783 745 P_____________ SH052019 -16.3400 154.898 TD 27 1005 -1 1008 135 50 7 253
2018334S09156 2019 110 SP EA OWEN 2018-12-04 18:00:00 TS -16.5000 154.600 main 745 717 O_____________ jtwc_sh SH052019 -16.5000 154.600 TD 25 1006 -1 1008 135 50 7 218
2018334S09156 2019 110 SP EA OWEN 2018-12-04 21:00:00 TS -16.8574 154.470 main 710 684 P_____________ SH052019 -16.8574 154.470 TD 22 1006 -1 1008 135 50 7 195
2018334S09156 2019 110 SP EA OWEN 2018-12-05 00:00:00 NR -17.2000 154.400 main 684 669 O_____________ jtwc_sh SH052019 -17.2000 154.400 DB 20 1006 -3 1008 135 50 5 202
2018334S09156 2019 110 SP EA OWEN 2018-12-05 03:00:00 NR -17.3024 154.280 main 669 651 P_____________ SH052019 -17.3024 154.280 DB 22 1005 -3 1008 135 50 3 251
2018334S09156 2019 110 SP EA OWEN 2018-12-05 06:00:00 TS -17.3000 154.100 main 651 633 O_____________ jtwc_sh SH052019 -17.3000 154.100 TD 25 1005 -1 1008 135 50 4 267
2018334S09156 2019 110 SP EA OWEN 2018-12-05 09:00:00 TS -17.3225 153.838 main 624 597 P_____________ SH052019 -17.3225 153.838 TD 22 1005 -1 1007 150 50 6 270
2018334S09156 2019 110 SP EA OWEN 2018-12-05 12:00:00 NR -17.3000 153.500 main 597 570 O_____________ jtwc_sh SH052019 -17.3000 153.500 DB 20 1006 -3 1007 165 50 7 277
2018334S09156 2019 110 SP EA OWEN 2018-12-05 15:00:00 NR -17.2375 153.115 main 570 544 P_____________ SH052019 -17.2375 153.115 DB 20 1005 -3 1006 177 50 8 285
2018334S09156 2019 110 SP EA OWEN 2018-12-05 18:00:00 NR -17.1000 152.700 main 544 529 O_____________ jtwc_sh SH052019 -17.1000 152.700 DB 20 1005 -3 1006 190 50 9 295
2018334S09156 2019 110 SP EA OWEN 2018-12-05 21:00:00 NR -16.8725 152.285 main 529 523 P_____________ SH052019 -16.8725 152.285 DB 20 1005 -3 1006 155 50 9 303
2018334S09156 2019 110 SP EA OWEN 2018-12-06 00:00:00 NR -16.6000 151.900 main 527 521 O_____________ jtwc_sh SH052019 -16.6000 151.900 DB 20 1005 -3 1006 120 50 9 305
2018334S09156 2019 110 SP EA OWEN 2018-12-06 03:00:00 NR -16.3800 151.548 main 521 521 P_____________ SH052019 -16.3800 151.548 DB 20 1005 -3 1005 125 50 8 311
2018334S09156 2019 110 SP EA OWEN 2018-12-06 06:00:00 NR -16.1000 151.300 main 539 539 O_____________ jtwc_sh SH052019 -16.1000 151.300 DB 20 1005 -3 1005 130 50 8 339
2018334S09156 2019 110 SP EA OWEN 2018-12-06 09:00:00 NR -15.5974 151.228 main 555 511 P_____________ SH052019 -15.5974 151.228 DB 20 1005 -3 1005 130 60 9 354
2018334S09156 2019 110 SP EA OWEN 2018-12-06 12:00:00 NR -15.2000 151.200 main 511 509 O_____________ jtwc_sh SH052019 -15.2000 151.200 DB 20 1006 -3 1006 130 70 4 337
2018334S09156 2019 110 SP EA OWEN 2018-12-06 15:00:00 NR -15.2025 151.058 main 509 508 P_____________ SH052019 -15.2025 151.058 DB 20 1005 -3 1005 160 70 4 236
2018334S09156 2019 110 SP EA OWEN 2018-12-06 18:00:00 NR -15.4000 150.900 main 529 529 O_____________ jtwc_sh SH052019 -15.4000 150.900 DB 20 1005 -3 1005 190 70 5 213
2018334S09156 2019 110 SP EA OWEN 2018-12-06 21:00:00 NR -15.6300 150.770 main 540 521 P_____________ SH052019 -15.6300 150.770 DB 20 1005 -3 1006 185 62 4 206
2018334S09156 2019 110 SP EA OWEN 2018-12-07 00:00:00 NR -15.8000 150.700 main 521 521 O_____________ jtwc_sh SH052019 -15.8000 150.700 DB 20 1005 -3 1007 180 55 1 0
2018334S09156 2019 110 SP EA OWEN 2018-12-07 03:00:00 NR -15.7675 150.743 main 521 521 P_____________ SH052019 -15.7675 150.743 DB 20 1003 -3 1005 180 52 2 27
2018334S09156 2019 110 SP EA OWEN 2018-12-07 06:00:00 NR -15.6000 150.800 main 540 516 O_____________ jtwc_sh SH052019 -15.6000 150.800 DB 20 1002 -3 1004 180 50 4 4
2018334S09156 2019 110 SP EA OWEN 2018-12-07 09:00:00 NR -15.3350 150.772 main 516 493 P_____________ SH052019 -15.3350 150.772 DB 20 1002 -3 1004 180 85 5 349
2018334S09156 2019 110 SP EA OWEN 2018-12-07 12:00:00 NR -15.1000 150.700 main 493 481 O_____________ jtwc_sh SH052019 -15.1000 150.700 DB 20 1003 -3 1005 180 120 3 336
2018334S09156 2019 110 SP EA OWEN 2018-12-07 15:00:00 NR -15.0325 150.630 main 481 481 P_____________ SH052019 -15.0325 150.630 DB 20 1004 -3 1005 177 120 2 270
2018334S09156 2019 110 SP EA OWEN 2018-12-07 18:00:00 NR -15.1000 150.500 main 492 492 O_____________ jtwc_sh SH052019 -15.1000 150.500 DB 20 1006 -3 1005 175 120 4 236
2018334S09156 2019 110 SP EA OWEN 2018-12-07 21:00:00 NR -15.2625 150.273 main 506 467 P_____________ SH052019 -15.2625 150.273 DB 20 1005 -3 1005 175 120 6 230
2018334S09156 2019 110 SP EA OWEN 2018-12-08 00:00:00 NR -15.5000 150.000 main 467 437 O_____________ jtwc_sh SH052019 -15.5000 150.000 DB 20 1005 -3 1005 175 120 7 225
2018334S09156 2019 110 SP EA OWEN 2018-12-08 03:00:00 NR -15.7499 149.772 main 437 394 P_____________ SH052019 -15.7499 149.772 DB 20 1005 -3 1004 177 120 7 224
2018334S09156 2019 110 SP EA OWEN 2018-12-08 06:00:00 NR -16.0000 149.500 main 394 346 O_____________ jtwc_sh SH052019 -16.0000 149.500 DB 20 1005 -3 1004 180 120 8 232
2018334S09156 2019 110 SP EA OWEN 2018-12-08 09:00:00 NR -16.2300 149.123 main 346 298 P_____________ SH052019 -16.2300 149.123 DB 22 1004 -3 1005 177 120 9 242
2018334S09156 2019 110 SP EA OWEN 2018-12-08 12:00:00 TS -16.4000 148.700 main 298 254 O_____________ jtwc_sh SH052019 -16.4000 148.700 TD 25 1004 -1 1006 175 120 9 252
2018334S09156 2019 110 SP EA OWEN 2018-12-08 15:00:00 TS -16.4875 148.277 main 254 216 P_____________ SH052019 -16.4875 148.277 TD 25 1004 -1 1006 175 120 8 263
2018334S09156 2019 110 SP EA OWEN 2018-12-08 18:00:00 TS -16.5000 147.900 main 216 188 O_____________ jtwc_sh SH052019 -16.5000 147.900 TD 25 1004 -1 1006 175 120 6 271
2018334S09156 2019 110 SP EA OWEN 2018-12-08 21:00:00 TS -16.4724 147.620 main 188 173 P_____________ SH052019 -16.4724 147.620 TD 27 1002 -1 1005 187 120 5 282
2018334S09156 2019 110 SP EA OWEN 2018-12-09 00:00:00 TS -16.4000 147.400 main 173 159 O_____________ jtwc_sh SH052019 -16.4000 147.400 TD 30 1001 -1 1005 200 120 4 293
2018334S09156 2019 110 SP EA OWEN 2018-12-09 03:00:00 TS -16.2999 147.200 main 159 147 P_____________ SH052019 -16.2999 147.200 TD 30 1000 -1 1004 162 120 4 297
2018334S09156 2019 110 SP EA OWEN 2018-12-09 06:00:00 TS -16.2000 147.000 main 147 138 O_____________ jtwc_sh SH052019 -16.2000 147.000 TD 30 1000 -1 1003 125 120 4 298
2018334S09156 2019 110 SP EA OWEN 2018-12-09 09:00:00 TS -16.1123 146.828 main 138 106 P_____________ SH052019 -16.1123 146.828 TD 30 1000 -1 1004 125 120 5 282
2018334S09156 2019 110 SP EA OWEN 2018-12-09 12:00:00 TS -16.1000 146.500 main 106 42 O_____________ jtwc_sh SH052019 -16.1000 146.500 TD 30 1000 -1 1005 125 120 9 264
2018334S09156 2019 110 SP EA OWEN 2018-12-09 15:00:00 TS -16.2000 145.900 main 42 0 O_____________ jtwc_sh SH052019 -16.2000 145.900 TS 40 996 0 60 60 60 1005 125 120 11 265
2018334S09156 2019 110 SP EA OWEN 2018-12-09 18:00:00 TS -16.2000 145.400 main 0 0 O_____________ jtwc_sh SH052019 -16.2000 145.400 TS 35 996 0 65 75 30 1004 130 25 11 271
2018334S09156 2019 110 SP EA OWEN 2018-12-09 21:00:00 TS -16.1739 144.774 main 0 0 P_____________ SH052019 -16.1739 144.774 TS 32 998 -1 1004 87 25 13 275
2018334S09156 2019 110 SP EA OWEN 2018-12-10 00:00:00 TS -16.1000 144.100 main 0 0 O_____________ jtwc_sh SH052019 -16.1000 144.100 TD 30 1000 -1 1004 45 25 13 280
2018334S09156 2019 110 SP EA OWEN 2018-12-10 03:00:00 TS -15.9573 143.492 main 0 0 P_____________ SH052019 -15.9573 143.492 TD 27 1000 -1 1003 85 32 12 285
2018334S09156 2019 110 SP EA OWEN 2018-12-10 06:00:00 TS -15.8000 142.900 main 0 0 O_____________ jtwc_sh SH052019 -15.8000 142.900 TD 25 1001 -1 1003 125 40 12 283
2018334S09156 2019 110 SP EA OWEN 2018-12-10 09:00:00 TS -15.6925 142.285 main 0 0 P_____________ SH052019 -15.6925 142.285 TD 22 1002 -1 1004 117 40 12 280
2018334S09156 2019 110 SP EA OWEN 2018-12-10 12:00:00 NR -15.6000 141.700 main 0 0 O_____________ jtwc_sh SH052019 -15.6000 141.700 DB 20 1003 -3 1005 110 40 11 281
2018334S09156 2019 110 SP EA OWEN 2018-12-10 15:00:00 NR -15.4850 141.155 main 32 32 P_____________ SH052019 -15.4850 141.155 DB 25 1001 -3 1004 125 40 10 282
2018334S09156 2019 110 SP EA OWEN 2018-12-10 18:00:00 TS -15.4000 140.700 main 86 86 O_____________ jtwc_sh SH052019 -15.4000 140.700 TD 30 1000 -1 1004 140 40 7 277
2018334S09156 2019 110 SP EA OWEN 2018-12-10 21:00:00 TS -15.3997 140.385 main 118 118 P_____________ SH052019 -15.3997 140.385 TD 32 999 -1 1004 132 30 6 270
2018334S09156 2019 110 SP EA OWEN 2018-12-11 00:00:00 TS -15.4000 140.100 main 150 150 O_____________ jtwc_sh SH052019 -15.4000 140.100 TS 35 998 0 1005 125 20 7 277
2018334S09156 2019 110 SP EA OWEN 2018-12-11 03:00:00 TS -15.3226 139.700 main 194 184 P_____________ SH052019 -15.3226 139.700 TS 35 998 0 1004 125 20 8 285
2018334S09156 2019 110 SP EA OWEN 2018-12-11 06:00:00 TS -15.2000 139.300 main 192 185 O_____________ jtwc_sh SH052019 -15.2000 139.300 TS 35 998 0 1004 125 20 7 292
2018334S09156 2019 110 SP EA OWEN 2018-12-11 09:00:00 TS -15.0424 138.992 main 193 178 P_____________ SH052019 -15.0424 138.992 TS 40 996 0 1004 112 25 7 297
2018334S09156 2019 110 SP EA OWEN 2018-12-11 12:00:00 TS -14.9000 138.700 main 180 160 O_____________ jtwc_sh SH052019 -14.9000 138.700 TS 45 995 0 45 45 45 45 1004 100 30 7 289
2018334S09156 2019 110 SP EA OWEN 2018-12-11 15:00:00 TS -14.8275 138.343 main 150 121 P_____________ SH052019 -14.8275 138.343 TS 47 994 0 47 45 42 47 1004 127 22 7 278
2018334S09156 2019 110 SP EA OWEN 2018-12-11 18:00:00 TS -14.8000 138.000 main 121 93 O_____________ jtwc_sh SH052019 -14.8000 138.000 TS 50 993 0 50 45 40 50 1004 155 15 6 273
2018334S09156 2019 110 SP EA OWEN 2018-12-11 21:00:00 TS -14.7924 137.735 main 93 77 P_____________ SH052019 -14.7924 137.735 TS 52 992 0 50 55 55 55 1004 152 15 5 270
2018334S09156 2019 110 SP EA OWEN 2018-12-12 00:00:00 TS -14.8000 137.500 main 77 64 O_____________ jtwc_sh SH052019 -14.8000 137.500 TS 55 991 0 50 65 70 60 20 20 20 20 1004 150 15 5 269
2018334S09156 2019 110 SP EA OWEN 2018-12-12 03:00:00 TS -14.8000 137.243 main 59 55 P_____________ SH052019 -14.8000 137.243 TS 57 986 0 62 77 80 67 27 30 30 27 1002 137 22 5 270
2018334S09156 2019 110 SP EA OWEN 2018-12-12 06:00:00 TS -14.8000 137.000 main 55 55 O_____________ jtwc_sh SH052019 -14.8000 137.000 TS 60 982 0 75 90 90 75 35 40 40 35 1001 125 30 4 272
2018334S09156 2019 110 SP EA OWEN 2018-12-12 09:00:00 TS -14.7850 136.792 main 55 55 P_____________ SH052019 -14.7850 136.792 TS 62 981 0 67 82 82 67 30 37 37 30 1001 118 20 4 270
2018334S09156 2019 110 SP EA OWEN 2018-12-12 12:00:00 TS -14.8000 136.600 main 55 55 O_____________ jtwc_sh SH052019 -14.8000 136.600 TY 65 980 1 60 75 75 60 25 35 35 25 1001 112 10 4 258
2018334S09156 2019 110 SP EA OWEN 2018-12-12 15:00:00 TS -14.8659 136.400 main 59 39 P_____________ SH052019 -14.8659 136.400 TY 67 978 1 62 77 70 60 27 35 32 25 1001 126 12 4 243
2018334S09156 2019 110 SP EA OWEN 2018-12-12 18:00:00 TS -15.0000 136.200 main 39 11 O_____________ jtwc_sh SH052019 -15.0000 136.200 TY 70 977 1 65 80 65 60 30 35 30 25 10 10 10 15 1002 140 15 5 229
2018334S09156 2019 110 SP EA OWEN 2018-12-12 21:00:00 TS -15.2000 136.000 main 11 0 O_____________ jtwc_sh SH052019 -15.2000 136.000 TY 85 967 2 65 80 65 60 30 35 30 25 10 10 10 15 1002 140 15 4 224
2018334S09156 2019 110 SP EA OWEN 2018-12-13 00:00:00 TS -15.3000 135.900 main 0 0 O_____________ jtwc_sh SH052019 -15.3000 135.900 TY 85 965 2 60 65 55 60 35 30 25 30 20 20 20 15 1005 180 15 20 1 0
2018334S09156 2019 110 SP EA OWEN 2018-12-13 03:00:00 TS -15.1000 136.000 main 22 22 O_____________ jtwc_sh SH052019 -15.1000 136.000 TY 80 970 1 60 65 55 60 35 30 25 30 20 20 20 15 1005 180 15 4 63
2018334S09156 2019 110 SP EA OWEN 2018-12-13 06:00:00 TS -15.1000 136.300 main 35 35 O_____________ jtwc_sh SH052019 -15.1000 136.300 TY 80 971 1 75 60 45 70 35 25 15 30 15 10 5 15 1002 170 15 100 5 89
2018334S09156 2019 110 SP EA OWEN 2018-12-13 09:00:00 TS -15.0863 136.560 main 54 54 P_____________ SH052019 -15.0863 136.560 TY 77 973 1 77 65 47 72 42 27 17 37 15 12 7 15 1002 165 15 5 90
2018334S09156 2019 110 SP EA OWEN 2018-12-13 12:00:00 TS -15.1000 136.800 main 72 70 O_____________ jtwc_sh SH052019 -15.1000 136.800 TY 75 975 1 80 70 50 75 50 30 20 45 15 15 10 15 1003 160 15 5 106
2018334S09156 2019 110 SP EA OWEN 2018-12-13 15:00:00 TS -15.2149 137.035 main 74 70 P_____________ SH052019 -15.2149 137.035 TY 77 973 1 85 72 55 80 42 32 25 40 17 17 15 20 1003 167 15 5 112
2018334S09156 2019 110 SP EA OWEN 2018-12-13 18:00:00 TS -15.3000 137.300 main 79 79 O_____________ jtwc_sh SH052019 -15.3000 137.300 TY 80 971 1 90 75 60 85 35 35 30 35 20 20 20 25 1003 175 15 6 90
2018334S09156 2019 110 SP EA OWEN 2018-12-13 21:00:00 TS -15.2148 137.605 main 99 99 P_____________ SH052019 -15.2148 137.605 TY 80 971 1 85 75 67 85 40 37 37 40 22 20 22 25 1003 175 15 7 74
2018334S09156 2019 110 SP EA OWEN 2018-12-14 00:00:00 TS -15.1000 138.000 main 127 127 O_____________ jtwc_sh SH052019 -15.1000 138.000 TY 80 972 1 80 75 75 85 45 40 45 45 25 20 25 25 1004 175 15 9 81
2018334S09156 2019 110 SP EA OWEN 2018-12-14 03:00:00 TS -15.0699 138.505 main 150 150 P_____________ SH052019 -15.0699 138.505 TY 77 972 1 82 75 75 80 47 37 40 45 27 17 20 25 1002 170 15 11 90
2018334S09156 2019 110 SP EA OWEN 2018-12-14 06:00:00 TS -15.1000 139.100 main 194 194 O_____________ jtwc_sh SH052019 -15.1000 139.100 TY 75 973 1 85 75 75 75 50 35 35 45 30 15 15 25 1001 165 15 12 93
2018334S09156 2019 110 SP EA OWEN 2018-12-14 09:00:00 TS -15.1326 139.750 main 187 120 P_____________ SH052019 -15.1326 139.750 TY 72 975 1 85 72 72 72 42 30 30 40 22 12 12 20 1001 162 15 13 99
2018334S09156 2019 110 SP EA OWEN 2018-12-14 12:00:00 TS -15.3000 140.400 main 120 58 O_____________ jtwc_sh SH052019 -15.3000 140.400 TY 70 977 1 85 70 70 70 35 25 25 35 15 10 10 15 1002 160 15 13 116
2018334S09156 2019 110 SP EA OWEN 2018-12-14 15:00:00 TS -15.7047 140.957 main 48 0 P_____________ SH052019 -15.7047 140.957 TY 65 979 1 70 57 57 65 27 22 22 30 7 5 5 7 1002 172 15 14 130
2018334S09156 2019 110 SP EA OWEN 2018-12-14 18:00:00 TS -16.2000 141.500 main 0 0 O_____________ jtwc_sh SH052019 -16.2000 141.500 TS 60 982 0 55 45 45 60 20 20 20 25 1003 185 15 14 130
2018334S09156 2019 110 SP EA OWEN 2018-12-14 21:00:00 TS -16.5998 142.085 main 0 0 P_____________ SH052019 -16.5998 142.085 TS 52 985 0 82 55 50 75 10 10 10 12 1004 177 15 14 125
2018334S09156 2019 110 SP EA OWEN 2018-12-15 00:00:00 TS -17.0000 142.700 main 0 0 O_____________ jtwc_sh SH052019 -17.0000 142.700 TS 45 989 0 110 65 55 90 1005 170 15 15 127
2018334S09156 2019 110 SP EA OWEN 2018-12-15 03:00:00 TS -17.4872 143.327 main 0 0 P_____________ SH052019 -17.4872 143.327 TS 40 994 0 100 62 57 90 1004 155 20 15 126
2018334S09156 2019 110 SP EA OWEN 2018-12-15 06:00:00 TS -17.9000 144.000 main 0 0 O_____________ jtwc_sh SH052019 -17.9000 144.000 TS 35 999 0 90 60 60 90 1003 140 25 15 114
2018334S09156 2019 110 SP EA OWEN 2018-12-15 09:00:00 TS -18.0951 144.758 main 0 0 P_____________ SH052019 -18.0951 144.758 TS 32 999 -1 1003 140 25 15 102
2018334S09156 2019 110 SP EA OWEN 2018-12-15 12:00:00 TS -18.2000 145.500 main 0 0 O_____________ jtwc_sh SH052019 -18.2000 145.500 TD 30 1000 -1 1003 140 25 13 101
2018334S09156 2019 110 SP EA OWEN 2018-12-15 15:00:00 TS -18.3498 146.145 main 10 10 P_____________ SH052019 -18.3498 146.145 TD 30 999 -1 1003 137 25 12 105
2018334S09156 2019 110 SP EA OWEN 2018-12-15 18:00:00 TS -18.5000 146.700 main 43 43 O_____________ jtwc_sh SH052019 -18.5000 146.700 TD 30 999 -1 1003 135 25 10 107
2018334S09156 2019 110 SP EA OWEN 2018-12-15 21:00:00 TS -18.6497 147.173 main 79 67 P_____________ SH052019 -18.6497 147.173 TD 30 999 -1 1004 190 25 9 109
2018334S09156 2019 110 SP EA OWEN 2018-12-16 00:00:00 TS -18.8000 147.600 main 70 69 O_____________ jtwc_sh SH052019 -18.8000 147.600 TD 30 1000 -1 1006 245 25 9 110
2018334S09156 2019 110 SP EA OWEN 2018-12-16 03:00:00 TS -18.9499 148.058 main 92 84 P_____________ SH052019 -18.9499 148.058 TD 30 1001 -1 1006 245 25 9 109
2018334S09156 2019 110 SP EA OWEN 2018-12-16 06:00:00 SS -19.1000 148.500 main 102 98 O_____________ jtwc_sh SH052019 -19.1000 148.500 SD 30 1002 -2 1006 245 25 9 109
2018334S09156 2019 110 SP EA OWEN 2018-12-16 09:00:00 SS -19.2274 148.915 main 109 107 P_____________ SH052019 -19.2274 148.915 SD 27 1003 -2 1006 245 25 8 112
2018334S09156 2019 110 SP EA OWEN 2018-12-16 12:00:00 SS -19.4000 149.300 main 113 107 O_____________ jtwc_sh SH052019 -19.4000 149.300 SD 25 1004 -2 1006 245 25 8 122
2018334S09156 2019 110 SP EA OWEN 2018-12-16 15:00:00 SS -19.6700 149.680 main 115 115 P_____________ SH052019 -19.6700 149.680 SD 25 1004 -2 1006 245 25 9 132
2018334S09156 2019 110 SP EA OWEN 2018-12-16 18:00:00 SS -20.0000 150.000 main 127 123 O_____________ jtwc_sh SH052019 -20.0000 150.000 SD 25 1004 -2 1006 245 25 9 145
2018334S09156 2019 110 SP EA OWEN 2018-12-16 21:00:00 SS -20.3949 150.215 main 130 123 P_____________ SH052019 -20.3949 150.215 SD 27 1002 -2 1004 230 25 8 152
2018334S09156 2019 110 SP EA OWEN 2018-12-17 00:00:00 SS -20.7000 150.400 main 132 132 O_____________ jtwc_sh SH052019 -20.7000 150.400 SD 30 1001 -2 1003 215 25 6 133
2018334S09156 2019 110 SP EA OWEN 2018-12-17 03:00:00 SS -20.7750 150.650 main 159 159 P_____________ SH052019 -20.7750 150.650 SD 30 1000 -2 1003 215 25 5 90
2018334S09156 2019 110 SP EA OWEN 2018-12-17 06:00:00 SS -20.7000 150.900 main 182 182 O_____________ jtwc_sh SH052019 -20.7000 150.900 SD 30 999 -2 1003 215 25 5 64
2018334S09156 2019 110 SP EA OWEN 2018-12-17 09:00:00 SS -20.5724 151.100 main 205 205 P_____________ SH052019 -20.5724 151.100 SD 30 999 -2 1003 215 25 5 51
2018334S09156 2019 110 SP EA OWEN 2018-12-17 12:00:00 SS -20.4000 151.300 main 231 231 O_____________ jtwc_sh SH052019 -20.4000 151.300 SD 30 1000 -2 1003 215 25 5 51
2018334S09156 2019 110 SP EA OWEN 2018-12-17 15:00:00 SS -20.2499 151.520 main 259 259 P_____________ SH052019 -20.2499 151.520 SD 27 1001 -2 1004 182 25 6 57
2018334S09156 2019 110 SP EA OWEN 2018-12-17 18:00:00 SS -20.1000 151.800 main 281 281 O_____________ jtwc_sh SH052019 -20.1000 151.800 SD 25 1003 -2 1006 150 25 7 63
2018334S09156 2019 110 SP EA OWEN 2018-12-17 21:00:00 SS -19.9127 152.215 main 319 319 P_____________ SH052019 -19.9127 152.215 SD 25 1002 -2 1005 147 25 8 68
2018334S09156 2019 110 SP EA OWEN 2018-12-18 00:00:00 SS -19.8000 152.600 main 351 351 O_____________ jtwc_sh SH052019 -19.8000 152.600 SD 25 1002 -2 1004 145 25 5 86
2018334S09156 2019 110 SP EA OWEN 2018-12-18 03:00:00 SS -19.8773 152.780 main 354 345 P_____________ SH052019 -19.8773 152.780 SD 25 1001 -2 1004 145 25 3 125
2018334S09156 2019 110 SP EA OWEN 2018-12-18 06:00:00 SS -20.0000 152.900 main 352 352 O_____________ jtwc_sh SH052019 -20.0000 152.900 SD 25 1001 -2 1004 145 25 4 115
2018334S09156 2019 110 SP EA OWEN 2018-12-18 09:00:00 SS -20.0342 153.134 main 365 365 P_____________ SH052019 -20.0342 153.134 SD 25 1002 -2 1004 145 25 4 90
2018334S09156 2019 110 SP EA OWEN 2018-12-18 12:00:00 SS -20.0000 153.300 main 380 380 O_____________ jtwc_sh SH052019 -20.0000 153.300 SD 25 1004 -2 1004 145 25 2 49
2018334S09156 2019 110 SP EA OWEN 2018-12-18 15:00:00 SS -19.9000 153.300 main 388 376 O_____________ jtwc_sh SH052019 -19.9000 153.300 SD 25 1004 -2 1004 145 25 3 305
2018334S09156 2019 110 SP EA OWEN 2018-12-18 18:00:00 SS -19.8000 153.000 main 376 363 O_____________ jtwc_sh SH052019 -19.8000 153.000 SD 25 1004 -2 1006 145 50 5 285
2018334S09156 2019 110 SP EA OWEN 2018-12-18 21:00:00 SS -19.7601 152.754 main 363 355 P_____________ SH052019 -19.7601 152.754 SD 22 1004 -2 1006 145 50 5 282
2018334S09156 2019 110 SP EA OWEN 2018-12-19 00:00:00 SS -19.7000 152.500 main 355 344 O_____________ jtwc_sh SH052019 -19.7000 152.500 SD 20 1005 -2 1006 145 50 6 288
2018334S09156 2019 110 SP EA OWEN 2018-12-19 03:00:00 SS -19.5751 152.143 main 345 327 P_____________ SH052019 -19.5751 152.143 SD 20 1006 -2 1006 145 50 8 301
2018334S09156 2019 110 SP EA OWEN 2018-12-19 06:00:00 SS -19.3000 151.800 main 331 326 O_____________ jtwc_sh SH052019 -19.3000 151.800 SD 20 1007 -2 1006 145 50 10 327
2018334S09156 2019 110 SP EA OWEN 2018-12-19 09:00:00 SS -18.7649 151.585 main 337 337 P_____________ SH052019 -18.7649 151.585 SD 20 1007 -2 1006 145 50 12 341
2018334S09156 2019 110 SP EA OWEN 2018-12-19 12:00:00 SS -18.2000 151.400 main 360 359 O_____________ jtwc_sh SH052019 -18.2000 151.400 SD 20 1007 -2 1006 145 50 10 336
2018334S09156 2019 110 SP EA OWEN 2018-12-19 15:00:00 SS -17.8550 151.150 main 368 368 P_____________ SH052019 -17.8550 151.150 SD 20 1005 -2 1006 145 50 8 322
2018334S09156 2019 110 SP EA OWEN 2018-12-19 18:00:00 SS -17.6000 150.900 main 374 374 O_____________ jtwc_sh SH052019 -17.6000 150.900 SD 20 1004 -2 1006 145 50 7 319
2018334S09156 2019 110 SP EA OWEN 2018-12-19 21:00:00 SS -17.3350 150.685 main 390 385 P_____________ SH052019 -17.3350 150.685 SD 20 1005 -2 1007 150 50 6 323
2018334S09156 2019 110 SP EA OWEN 2018-12-20 00:00:00 SS -17.1000 150.500 main 398 398 O_____________ jtwc_sh SH052019 -17.1000 150.500 SD 20 1006 -2 1008 155 50 5 324
2018334S09156 2019 110 SP EA OWEN 2018-12-20 03:00:00 SS -16.8925 150.350 main 411 405 P_____________ SH052019 -16.8925 150.350 SD 20 1006 -2 1008 155 50 5 324
2018334S09156 2019 110 SP EA OWEN 2018-12-20 06:00:00 SS -16.7000 150.200 main 420 420 O_____________ jtwc_sh SH052019 -16.7000 150.200 SD 20 1007 -2 1008 155 50 6 321
2018334S09156 2019 110 SP EA OWEN 2018-12-20 09:00:00 SS -16.4625 149.992 main 425 412 P_____________ SH052019 -16.4625 149.992 SD 20 1005 -2 1008 155 50 6 316
2018334S09156 2019 110 SP EA OWEN 2018-12-20 12:00:00 NR -16.3000 149.800 main 412 402 O_____________ jtwc_sh SH052019 -16.3000 149.800 DB 20 1004 -3 1008 155 50 3 299
2018334S09156 2019 110 SP EA OWEN 2018-12-20 15:00:00 NR -16.3050 149.693 main 402 388 P_____________ SH052019 -16.3050 149.693 DB 20 1005 -3 1008 155 50 2 243
2018334S09156 2019 110 SP EA OWEN 2018-12-20 18:00:00 NR -16.4000 149.600 main 388 375 O_____________ jtwc_sh SH052019 -16.4000 149.600 DB 20 1007 -3 1008 155 50 3 235
2018334S09156 2019 110 SP EA OWEN 2018-12-20 21:00:00 NR -16.4625 149.457 main 375 351 P_____________ SH052019 -16.4625 149.457 DB 17 1007 -3 1008 155 50 4 235
2018334S09156 2019 110 SP EA OWEN 2018-12-21 00:00:00 NR -16.6000 149.300 main 351 334 O_____________ jtwc_sh SH052019 -16.6000 149.300 DB 15 1008 -3 1008 155 50 5 212
2018334S09156 2019 110 SP EA OWEN 2018-12-21 03:00:00 NR -16.8849 149.187 main 334 298 P_____________ SH052019 -16.8849 149.187 DB 15 1008 -3 1008 155 50 7 206
2018334S09156 2019 110 SP EA OWEN 2018-12-21 06:00:00 NR -17.2000 149.000 main 298 257 O_____________ jtwc_sh SH052019 -17.2000 149.000 DB 15 1008 -3 1008 155 50 8 226
2018334S09156 2019 110 SP EA OWEN 2018-12-21 09:00:00 NR -17.4152 148.615 main 257 218 P_____________ SH052019 -17.4152 148.615 DB 15 1008 -3 1008 155 50 9 242
2018334S09156 2019 110 SP EA OWEN 2018-12-21 12:00:00 NR -17.6000 148.200 main 218 186 O_____________ jtwc_sh SH052019 -17.6000 148.200 DB 15 1008 -3 1008 155 50 8 239
2018334S09156 2019 110 SP EA OWEN 2018-12-21 15:00:00 NR -17.8149 147.927 main 186 159 P_____________ SH052019 -17.8149 147.927 DB 15 1006 -3 1006 135 50 6 230
2018334S09156 2019 110 SP EA OWEN 2018-12-21 18:00:00 NR -18.0000 147.700 main 159 138 O_____________ jtwc_sh SH052019 -18.0000 147.700 DB 15 1005 -3 1005 115 50 5 236
2018334S09156 2019 110 SP EA OWEN 2018-12-21 21:00:00 NR -18.1201 147.458 main 138 104 P_____________ SH052019 -18.1201 147.458 DB 15 1005 -3 1005 97 50 5 247
2018334S09156 2019 110 SP EA OWEN 2018-12-22 00:00:00 NR -18.2000 147.200 main 104 O_____________ jtwc_sh SH052019 -18.2000 147.200 DB 15 1006 -3 1006 80 50 5 252

Digital Typhoon Data and Search

About IBTrACS Database

This database is a web-friendly format of International Best Track Archive for Climate Stewardship (IBTrACS), a global best track data archive curated by NOAA dating back to 1842.

Updated: 2022-08-12